Time;durP1;ratioP1;P1;durP2;ratioP2;P2;SDS_P1;SDS_P2;PMS_P1;PMS_P2;Temp;Humidity;BMP_temperature;BMP_pressure;BME280_temperature;BME280_humidity;BME280_pressure;Samples;Min_cycle;Max_cycle;Signal;HPM_P1;HPM_P2
2024/01/03 00:00:56;;;;;;;19.45;3.05;;;10.30;99.90;;;;;;6300012;28;20052;-88
2024/01/03 00:03:58;;;;;;;15.63;2.60;;;10.30;99.90;;;;;;6276057;28;20057;-89
2024/01/03 00:07:00;;;;;;;20.75;2.78;;;10.30;99.90;;;;;;6297918;28;20526;-89
2024/01/03 00:10:01;;;;;;;18.83;3.15;;;10.20;99.90;;;;;;6281166;28;20056;-87
2024/01/03 00:13:03;;;;;;;19.50;2.90;;;10.10;99.90;;;;;;6279550;28;20049;-88
2024/01/03 00:16:06;;;;;;;17.27;2.95;;;10.10;99.90;;;;;;6298042;28;20063;-87
2024/01/03 00:19:08;;;;;;;19.33;2.95;;;10.10;99.90;;;;;;6255556;28;20057;-89
2024/01/03 00:22:10;;;;;;;18.88;3.13;;;10.00;99.90;;;;;;6305622;28;20129;-87
2024/01/03 00:25:12;;;;;;;16.58;2.72;;;10.00;99.90;;;;;;6289707;28;20052;-88
2024/01/03 00:28:13;;;;;;;19.05;2.65;;;9.90;99.90;;;;;;6281108;28;20044;-88
2024/01/03 00:31:15;;;;;;;16.02;2.40;;;9.90;99.90;;;;;;6291319;28;20096;-90
2024/01/03 00:34:17;;;;;;;20.95;3.50;;;9.90;99.90;;;;;;6281020;28;20045;-89
2024/01/03 00:37:19;;;;;;;24.15;2.85;;;9.90;99.90;;;;;;6280030;28;20048;-88
2024/01/03 00:40:20;;;;;;;17.48;2.95;;;9.80;99.90;;;;;;6297413;28;20154;-88
2024/01/03 00:43:22;;;;;;;18.23;3.13;;;9.80;99.90;;;;;;6282233;28;20447;-87
2024/01/03 00:46:24;;;;;;;28.92;3.58;;;9.80;99.90;;;;;;6298645;28;20052;-86
2024/01/03 00:49:25;;;;;;;21.67;3.65;;;9.80;99.90;;;;;;6322543;28;20056;-86
2024/01/03 00:52:27;;;;;;;19.30;3.28;;;9.90;99.90;;;;;;6303221;28;20051;-88
2024/01/03 00:55:29;;;;;;;18.30;2.85;;;9.90;99.90;;;;;;6305684;28;20121;-88
2024/01/03 00:58:33;;;;;;;25.67;3.38;;;9.80;99.90;;;;;;6303478;28;20055;-87
2024/01/03 01:01:34;;;;;;;18.55;2.92;;;9.80;99.90;;;;;;6323032;28;20044;-90
2024/01/03 01:04:39;;;;;;;22.30;3.67;;;9.80;99.90;;;;;;6306144;28;20056;-87
2024/01/03 01:07:40;;;;;;;22.83;3.42;;;9.80;99.90;;;;;;6305572;28;20048;-88
2024/01/03 01:10:42;;;;;;;26.02;3.67;;;9.80;99.90;;;;;;6305977;28;20052;-88
2024/01/03 01:13:44;;;;;;;19.25;2.90;;;9.80;99.90;;;;;;6301913;28;20052;-88
2024/01/03 01:16:45;;;;;;;18.33;2.97;;;9.90;99.90;;;;;;6305335;28;20117;-88
2024/01/03 01:19:47;;;;;;;18.63;3.42;;;10.00;99.90;;;;;;6322989;28;20052;-88
2024/01/03 01:22:49;;;;;;;21.25;3.38;;;10.10;99.90;;;;;;6305020;28;20044;-88
2024/01/03 01:25:50;;;;;;;22.42;3.40;;;10.10;99.90;;;;;;6303867;28;20059;-87
2024/01/03 01:28:52;;;;;;;18.02;3.47;;;10.10;99.90;;;;;;6302151;28;20063;-89
2024/01/03 01:31:53;;;;;;;23.75;3.53;;;10.00;99.90;;;;;;6325015;28;20048;-89
2024/01/03 01:34:55;;;;;;;23.92;3.20;;;10.00;99.90;;;;;;6310092;28;20052;-89
2024/01/03 01:37:57;;;;;;;20.90;3.92;;;10.00;99.90;;;;;;6307768;28;20059;-89
2024/01/03 01:40:59;;;;;;;27.58;3.95;;;10.00;99.90;;;;;;6307621;28;20044;-89
2024/01/03 01:44:00;;;;;;;24.33;3.38;;;10.00;99.90;;;;;;6306303;28;20202;-89
2024/01/03 01:47:02;;;;;;;23.83;4.32;;;10.00;99.90;;;;;;6324755;28;20055;-89
2024/01/03 01:50:04;;;;;;;28.75;4.20;;;9.90;99.90;;;;;;6307620;28;20051;-87
2024/01/03 01:53:05;;;;;;;26.23;3.47;;;9.90;99.90;;;;;;6308250;28;20503;-87
2024/01/03 01:56:07;;;;;;;20.42;3.78;;;9.90;99.90;;;;;;6328883;28;20063;-88
2024/01/03 01:59:09;;;;;;;25.38;3.53;;;10.00;99.90;;;;;;6306711;28;20080;-88
2024/01/03 02:02:10;;;;;;;20.15;3.30;;;9.90;99.90;;;;;;6330039;28;20517;-87
2024/01/03 02:05:13;;;;;;;24.50;3.47;;;9.90;99.90;;;;;;6309568;28;20499;-87
2024/01/03 02:08:15;;;;;;;21.52;3.30;;;9.90;99.90;;;;;;6326715;28;20052;-87
2024/01/03 02:11:17;;;;;;;25.05;3.80;;;9.80;99.90;;;;;;6309484;28;20059;-87
2024/01/03 02:14:18;;;;;;;20.55;3.47;;;9.80;99.90;;;;;;6305540;28;20052;-88
2024/01/03 02:17:20;;;;;;;20.88;3.75;;;9.80;99.90;;;;;;6309947;28;20068;-86
2024/01/03 02:20:22;;;;;;;24.50;4.40;;;9.70;99.90;;;;;;6312091;28;20127;-90
2024/01/03 02:23:23;;;;;;;23.65;3.53;;;9.80;99.90;;;;;;6328456;28;20538;-90
2024/01/03 02:26:25;;;;;;;24.30;3.53;;;9.80;99.90;;;;;;6327705;28;20076;-90
2024/01/03 02:29:31;;;;;;;21.23;3.28;;;9.70;99.90;;;;;;6312650;28;20129;-89
2024/01/03 02:32:32;;;;;;;20.33;3.88;;;9.70;99.90;;;;;;6328859;28;20048;-89
2024/01/03 02:35:34;;;;;;;23.70;3.45;;;9.80;99.90;;;;;;6311458;28;20060;-89
2024/01/03 02:38:36;;;;;;;22.20;3.40;;;9.80;99.90;;;;;;6329096;28;20058;-89
2024/01/03 02:41:38;;;;;;;18.80;3.22;;;9.80;99.90;;;;;;6311112;28;20112;-88
2024/01/03 02:44:39;;;;;;;21.30;3.25;;;9.80;99.90;;;;;;6324680;28;20059;-89
2024/01/03 02:47:41;;;;;;;29.23;4.13;;;9.80;99.90;;;;;;6292932;28;20050;-89
2024/01/03 02:50:47;;;;;;;20.67;2.83;;;9.80;99.90;;;;;;6309983;28;20131;-89
2024/01/03 02:53:49;;;;;;;20.33;3.00;;;9.80;99.90;;;;;;6259989;28;20055;-89
2024/01/03 02:56:51;;;;;;;21.52;2.90;;;9.80;99.90;;;;;;6330143;28;20103;-89
2024/01/03 02:59:53;;;;;;;20.08;3.75;;;9.80;99.90;;;;;;6283387;28;20066;-89
2024/01/03 03:02:55;;;;;;;22.00;3.20;;;9.70;99.90;;;;;;6305193;28;20132;-89
2024/01/03 03:05:56;;;;;;;17.88;2.78;;;9.70;99.90;;;;;;6289483;28;20110;-88
2024/01/03 03:08:58;;;;;;;20.30;2.67;;;9.70;99.90;;;;;;6309653;28;20127;-88
2024/01/03 03:12:16;;;;;;;16.52;2.67;;;9.70;99.90;;;;;;6275821;28;20183;-88
2024/01/03 03:15:17;;;;;;;13.82;2.13;;;9.70;99.90;;;;;;6308504;28;20063;-88
2024/01/03 03:18:19;;;;;;;13.35;2.38;;;9.70;99.90;;;;;;6303701;28;20092;-89
2024/01/03 03:21:21;;;;;;;17.20;2.30;;;9.70;99.90;;;;;;6345262;28;20048;-89
2024/01/03 03:24:23;;;;;;;16.95;2.83;;;9.80;99.90;;;;;;6303073;28;20048;-89
2024/01/03 03:27:24;;;;;;;14.80;2.45;;;9.90;99.90;;;;;;6314449;28;20068;-88
2024/01/03 03:30:26;;;;;;;14.48;2.13;;;9.80;99.90;;;;;;6328017;28;20094;-87
2024/01/03 03:33:28;;;;;;;19.45;2.40;;;9.90;99.90;;;;;;6282302;28;20048;-86
2024/01/03 03:36:30;;;;;;;11.68;2.00;;;9.90;99.90;;;;;;6301781;28;20091;-87
2024/01/03 03:39:32;;;;;;;11.57;1.92;;;10.00;99.90;;;;;;6329206;28;20058;-85
2024/01/03 03:42:34;;;;;;;14.40;2.50;;;10.00;99.90;;;;;;6285888;28;20047;-88
2024/01/03 03:45:35;;;;;;;16.73;2.83;;;9.90;99.90;;;;;;6286284;28;20131;-88
2024/01/03 03:48:37;;;;;;;13.90;2.40;;;9.90;99.90;;;;;;6284817;28;20049;-87
2024/01/03 03:51:39;;;;;;;13.63;2.20;;;9.80;99.90;;;;;;6284470;28;20102;-88
2024/01/03 03:54:41;;;;;;;13.98;2.08;;;9.80;99.90;;;;;;6302061;28;20411;-88
2024/01/03 03:57:42;;;;;;;11.98;2.05;;;9.80;99.90;;;;;;6307904;28;20052;-86
2024/01/03 04:00:44;;;;;;;15.95;2.00;;;9.80;99.90;;;;;;6299604;28;20054;-88
2024/01/03 04:03:46;;;;;;;17.20;2.25;;;9.80;99.90;;;;;;6283794;28;20079;-88
2024/01/03 04:06:47;;;;;;;15.52;2.47;;;9.80;99.90;;;;;;6319290;28;20130;-87
2024/01/03 04:09:49;;;;;;;17.42;2.17;;;9.80;99.90;;;;;;6301329;28;20059;-88
2024/01/03 04:12:52;;;;;;;11.52;1.98;;;9.80;99.90;;;;;;6276198;28;20052;-88
2024/01/03 04:15:54;;;;;;;17.50;2.72;;;9.90;99.90;;;;;;6286777;28;20407;-87
2024/01/03 04:18:56;;;;;;;18.35;2.88;;;10.00;99.90;;;;;;6258397;28;20483;-88
2024/01/03 04:21:57;;;;;;;13.60;2.15;;;10.10;99.90;;;;;;6316870;28;20207;-88
2024/01/03 04:24:59;;;;;;;12.25;2.15;;;10.10;99.90;;;;;;6284749;28;20511;-88
2024/01/03 04:28:01;;;;;;;18.88;3.25;;;10.00;99.90;;;;;;6283042;28;20044;-88
2024/01/03 04:31:03;;;;;;;16.35;2.47;;;10.20;99.90;;;;;;6301988;28;20059;-86
2024/01/03 04:34:05;;;;;;;16.52;2.45;;;10.10;99.90;;;;;;6277777;28;20496;-87
2024/01/03 04:37:06;;;;;;;14.45;2.33;;;10.10;99.90;;;;;;6303444;28;20048;-88
2024/01/03 04:40:08;;;;;;;17.17;2.47;;;10.10;99.90;;;;;;6303586;28;20049;-87
2024/01/03 04:43:10;;;;;;;13.23;1.90;;;10.10;99.90;;;;;;6287198;28;20059;-89
2024/01/03 04:46:11;;;;;;;15.63;1.88;;;10.10;99.90;;;;;;6327788;22;20063;-92
2024/01/03 04:49:13;;;;;;;16.23;2.13;;;10.10;99.90;;;;;;6329017;28;20051;-91
2024/01/03 04:52:15;;;;;;;15.90;1.77;;;10.20;99.90;;;;;;6324703;28;20081;-90
2024/01/03 04:55:17;;;;;;;11.18;1.50;;;10.20;99.90;;;;;;6324969;28;20048;-91
2024/01/03 04:58:18;;;;;;;14.32;2.17;;;10.30;99.90;;;;;;6325216;28;20533;-92
2024/01/03 05:01:20;;;;;;;10.55;1.75;;;10.20;99.90;;;;;;6325162;28;20044;-91
2024/01/03 05:04:22;;;;;;;11.40;2.00;;;10.20;99.90;;;;;;6325558;28;20074;-91
2024/01/03 05:07:23;;;;;;;11.82;1.90;;;10.20;99.90;;;;;;6283482;28;20625;-92
2024/01/03 05:10:25;;;;;;;11.82;1.88;;;10.20;99.90;;;;;;6323286;28;20415;-91
2024/01/03 05:13:29;;;;;;;12.70;2.30;;;10.20;99.90;;;;;;6322557;28;20044;-90
2024/01/03 05:16:31;;;;;;;10.45;1.67;;;10.10;99.90;;;;;;6324321;28;20518;-90
2024/01/03 05:19:32;;;;;;;12.50;1.83;;;10.20;99.90;;;;;;6327644;28;20083;-91
2024/01/03 05:22:34;;;;;;;12.50;2.03;;;10.10;99.90;;;;;;6329392;28;20055;-93
2024/01/03 05:25:36;;;;;;;17.48;2.42;;;10.10;99.90;;;;;;6329375;28;20048;-89
2024/01/03 05:28:37;;;;;;;13.57;2.20;;;10.20;99.90;;;;;;6321737;28;20055;-91
2024/01/03 05:31:39;;;;;;;12.82;2.30;;;10.10;99.90;;;;;;6333030;28;20040;-91
2024/01/03 05:34:41;;;;;;;12.60;1.80;;;10.10;99.90;;;;;;6288205;28;20099;-91
2024/01/03 05:37:42;;;;;;;10.07;1.75;;;10.00;99.90;;;;;;6321890;28;20413;-89
2024/01/03 05:40:44;;;;;;;16.45;2.15;;;9.90;99.90;;;;;;6312537;28;20055;-90
2024/01/03 05:43:46;;;;;;;11.95;2.05;;;9.80;99.90;;;;;;6296512;28;20048;-91
2024/01/03 05:46:47;;;;;;;11.52;1.85;;;9.80;99.90;;;;;;6325830;28;20059;-89
2024/01/03 05:49:50;;;;;;;9.75;1.92;;;9.70;99.90;;;;;;6330790;28;20056;-89
2024/01/03 05:52:52;;;;;;;10.93;1.63;;;9.60;99.90;;;;;;6313026;28;20048;-91
2024/01/03 05:55:54;;;;;;;11.30;2.08;;;9.60;99.90;;;;;;6337603;28;20044;-92
2024/01/03 05:58:55;;;;;;;14.45;2.35;;;9.60;99.90;;;;;;6324723;28;20052;-90
2024/01/03 06:01:57;;;;;;;13.77;2.22;;;9.60;99.90;;;;;;6329934;28;20044;-91
2024/01/03 06:04:58;;;;;;;13.13;2.08;;;9.50;99.90;;;;;;6313280;28;20465;-91
2024/01/03 06:08:00;;;;;;;14.93;2.50;;;9.40;99.90;;;;;;6325040;28;20500;-91
2024/01/03 06:11:02;;;;;;;11.25;2.10;;;9.40;99.90;;;;;;6329825;28;20048;-91
2024/01/03 06:14:04;;;;;;;11.63;1.77;;;9.40;99.90;;;;;;6329251;28;20438;-91
2024/01/03 06:17:05;;;;;;;14.40;1.83;;;9.40;99.90;;;;;;6325359;28;20054;-92
2024/01/03 06:20:07;;;;;;;12.93;2.05;;;9.30;99.90;;;;;;6311178;28;20417;-92
2024/01/03 06:23:09;;;;;;;12.90;1.85;;;9.40;99.90;;;;;;6332580;28;20044;-90
2024/01/03 06:26:10;;;;;;;12.40;1.77;;;9.30;99.90;;;;;;6339538;28;20044;-90
2024/01/03 06:29:12;;;;;;;13.70;2.20;;;9.30;99.90;;;;;;6296145;28;20506;-91
2024/01/03 06:32:14;;;;;;;14.25;2.33;;;9.40;99.90;;;;;;6306676;28;20129;-90
2024/01/03 06:35:16;;;;;;;14.63;2.05;;;9.30;99.90;;;;;;6331819;28;20062;-92
2024/01/03 06:38:18;;;;;;;15.75;2.45;;;9.30;99.90;;;;;;6342652;28;20043;-89
2024/01/03 06:41:20;;;;;;;18.20;2.53;;;9.20;99.90;;;;;;6332475;28;20039;-94
2024/01/03 06:44:22;;;;;;;15.55;2.33;;;9.30;99.90;;;;;;6330315;28;20076;-91
2024/01/03 06:47:25;;;;;;;21.23;2.10;;;9.30;99.90;;;;;;6311474;28;20052;-91
2024/01/03 06:50:26;;;;;;;15.23;2.42;;;9.30;99.90;;;;;;6343657;28;20051;-91
2024/01/03 06:53:29;;;;;;;16.17;2.17;;;9.30;99.90;;;;;;6340689;28;20040;-91
2024/01/03 06:56:30;;;;;;;17.13;2.38;;;9.30;99.90;;;;;;6329328;28;20056;-91
2024/01/03 06:59:32;;;;;;;14.35;2.35;;;9.20;99.90;;;;;;6334715;28;20044;-90
2024/01/03 07:02:34;;;;;;;20.05;2.67;;;9.20;99.90;;;;;;6336465;28;20051;-89
2024/01/03 07:05:36;;;;;;;19.15;2.88;;;9.20;99.90;;;;;;6338601;28;20086;-89
2024/01/03 07:08:38;;;;;;;13.90;2.40;;;9.20;99.90;;;;;;6322562;28;20056;-89
2024/01/03 07:11:39;;;;;;;24.05;3.70;;;9.20;99.90;;;;;;6296823;28;20044;-92
2024/01/03 07:14:41;;;;;;;23.88;3.17;;;9.30;99.90;;;;;;6334542;28;20466;-90
2024/01/03 07:17:43;;;;;;;16.25;2.25;;;9.30;99.90;;;;;;6315096;28;20572;-89
2024/01/03 07:20:44;;;;;;;15.30;2.65;;;9.30;99.90;;;;;;6325236;28;20520;-90
2024/01/03 07:23:46;;;;;;;16.60;2.47;;;9.30;99.90;;;;;;6288156;28;20087;-89
2024/01/03 07:26:48;;;;;;;13.35;2.28;;;9.40;99.90;;;;;;6328300;28;20055;-92
2024/01/03 07:29:50;;;;;;;17.42;2.70;;;9.40;99.90;;;;;;6327061;28;20040;-90
2024/01/03 07:32:56;;;;;;;24.05;3.35;;;9.40;99.90;;;;;;6331120;28;20048;-90
2024/01/03 07:35:58;;;;;;;13.88;2.97;;;9.30;99.90;;;;;;6307759;28;20075;-88
2024/01/03 07:39:00;;;;;;;22.38;2.88;;;9.30;99.90;;;;;;6328413;28;20044;-90
2024/01/03 07:42:02;;;;;;;18.33;3.10;;;9.40;99.90;;;;;;6332861;28;20101;-91
2024/01/03 07:45:05;;;;;;;26.20;2.50;;;9.30;99.90;;;;;;6316620;28;20109;-91
2024/01/03 07:48:07;;;;;;;17.10;2.85;;;9.30;99.90;;;;;;6342641;28;20483;-92
2024/01/03 07:51:09;;;;;;;12.90;2.50;;;9.30;99.90;;;;;;6321920;28;20102;-92
2024/01/03 07:54:12;;;;;;;17.65;2.70;;;9.30;99.90;;;;;;6335384;28;20098;-89
2024/01/03 07:57:13;;;;;;;22.48;3.30;;;9.20;99.90;;;;;;6328961;28;20055;-91
2024/01/03 08:00:15;;;;;;;20.55;3.35;;;9.20;99.90;;;;;;6335289;28;20043;-94
2024/01/03 08:03:16;;;;;;;20.95;3.17;;;9.20;99.90;;;;;;6331137;28;20047;-91
2024/01/03 08:06:18;;;;;;;20.60;4.00;;;9.20;99.90;;;;;;6342445;28;20067;-90
2024/01/03 08:09:20;;;;;;;24.90;3.63;;;9.20;99.90;;;;;;6337127;28;20058;-90
2024/01/03 08:12:22;;;;;;;24.27;3.97;;;9.20;99.90;;;;;;6337482;28;20052;-90
2024/01/03 08:15:24;;;;;;;24.70;3.70;;;9.20;99.90;;;;;;6338288;28;20764;-91
2024/01/03 08:18:25;;;;;;;23.67;3.95;;;9.10;99.90;;;;;;6336879;28;20051;-91
2024/01/03 08:21:27;;;;;;;23.48;3.25;;;9.10;99.90;;;;;;6325484;28;20125;-91
2024/01/03 08:24:29;;;;;;;24.40;3.67;;;9.10;99.90;;;;;;6319395;28;20071;-91
2024/01/03 08:27:36;;;;;;;27.98;3.75;;;9.10;99.90;;;;;;6332719;28;20052;-90
2024/01/03 08:30:37;;;;;;;24.35;3.97;;;9.10;99.90;;;;;;6318674;28;20691;-91
2024/01/03 08:33:39;;;;;;;20.17;3.22;;;9.10;99.90;;;;;;6336525;28;20044;-89
2024/01/03 08:36:41;;;;;;;29.80;4.35;;;9.10;99.90;;;;;;6341609;28;20055;-89
2024/01/03 08:39:43;;;;;;;27.40;4.28;;;9.30;99.90;;;;;;6330725;28;20106;-90
2024/01/03 08:42:44;;;;;;;31.55;4.82;;;9.40;99.90;;;;;;6298435;28;20132;-85
2024/01/03 08:45:46;;;;;;;30.52;4.85;;;9.50;99.90;;;;;;6323922;28;20590;-88
2024/01/03 08:48:48;;;;;;;29.27;5.65;;;9.60;99.90;;;;;;6324417;28;20055;-88
2024/01/03 08:51:50;;;;;;;26.58;4.13;;;9.60;99.90;;;;;;6307126;28;20075;-87
2024/01/03 08:54:52;;;;;;;31.75;4.55;;;9.60;99.90;;;;;;6323148;28;20063;-87
2024/01/03 08:57:56;;;;;;;24.67;4.15;;;9.60;99.90;;;;;;6316796;28;20106;-86
2024/01/03 09:00:58;;;;;;;27.27;4.13;;;9.60;99.90;;;;;;6317658;28;20044;-82
2024/01/03 09:04:00;;;;;;;31.08;4.85;;;9.60;99.90;;;;;;6299415;28;20047;-85
2024/01/03 09:07:01;;;;;;;34.40;4.95;;;9.60;99.90;;;;;;6319840;28;20060;-88
2024/01/03 09:10:03;;;;;;;32.13;4.55;;;9.60;99.90;;;;;;6307295;28;20481;-85
2024/01/03 09:13:05;;;;;;;26.52;4.38;;;9.60;99.90;;;;;;6315893;28;20128;-84
2024/01/03 09:16:06;;;;;;;29.17;5.38;;;9.70;99.90;;;;;;6319936;28;20093;-82
2024/01/03 09:19:08;;;;;;;28.25;4.93;;;9.70;99.90;;;;;;6325985;28;20059;-89
2024/01/03 09:22:11;;;;;;;26.17;4.32;;;9.80;99.90;;;;;;6297231;28;20048;-91
2024/01/03 09:25:13;;;;;;;26.65;3.60;;;9.80;99.90;;;;;;6320138;28;20044;-89
2024/01/03 09:28:14;;;;;;;29.42;4.53;;;9.80;99.90;;;;;;6319529;28;20040;-90
2024/01/03 09:31:16;;;;;;;29.42;4.90;;;9.70;99.90;;;;;;6305603;28;20064;-87
2024/01/03 09:34:17;;;;;;;29.38;4.20;;;9.70;99.90;;;;;;6295253;28;20048;-87
2024/01/03 09:37:19;;;;;;;29.27;4.32;;;9.70;99.90;;;;;;6318822;28;20048;-87
2024/01/03 09:40:21;;;;;;;33.65;5.35;;;9.80;99.90;;;;;;6303135;28;20055;-89
2024/01/03 09:43:23;;;;;;;24.98;4.47;;;10.00;99.90;;;;;;6319470;28;20051;-89
2024/01/03 09:46:24;;;;;;;25.23;4.57;;;10.10;99.90;;;;;;6320209;28;20110;-89
2024/01/03 09:49:26;;;;;;;23.88;3.83;;;10.60;99.90;;;;;;6319870;28;20044;-89
2024/01/03 09:52:28;;;;;;;17.20;2.95;;;11.00;99.90;;;;;;6321007;28;20133;-88
2024/01/03 09:55:29;;;;;;;22.52;3.08;;;11.40;99.90;;;;;;6322570;28;20044;-88
2024/01/03 09:58:31;;;;;;;10.95;2.33;;;11.60;98.00;;;;;;6296828;28;20370;-87
2024/01/03 10:01:33;;;;;;;20.45;3.30;;;11.60;97.50;;;;;;6302256;28;20067;-89
2024/01/03 10:04:34;;;;;;;12.77;1.92;;;11.60;96.20;;;;;;6302767;28;20047;-89
2024/01/03 10:07:36;;;;;;;13.43;2.58;;;11.80;93.80;;;;;;6324289;28;20058;-89
2024/01/03 10:10:38;;;;;;;11.05;2.15;;;12.30;93.00;;;;;;6306644;28;20562;-90
2024/01/03 10:13:41;;;;;;;10.85;2.10;;;12.90;86.60;;;;;;6296448;28;20052;-89
2024/01/03 10:16:47;;;;;;;9.90;2.33;;;13.60;72.70;;;;;;6321891;28;20048;-90
2024/01/03 10:19:49;;;;;;;11.98;2.20;;;14.00;45.50;;;;;;6323752;28;20048;-89
2024/01/03 10:22:50;;;;;;;10.02;2.28;;;13.70;68.10;;;;;;6323872;28;20048;-88
2024/01/03 10:25:52;;;;;;;11.15;1.67;;;14.10;54.60;;;;;;6306299;28;20558;-90
2024/01/03 10:28:54;;;;;;;11.43;2.10;;;14.60;34.40;;;;;;6295719;28;20048;-90
2024/01/03 10:31:55;;;;;;;8.35;1.40;;;14.60;32.30;;;;;;6289523;28;20136;-88
2024/01/03 10:34:57;;;;;;;11.68;2.00;;;14.00;32.00;;;;;;6318398;28;20051;-88
2024/01/03 10:38:01;;;;;;;12.50;1.73;;;14.00;33.40;;;;;;6322751;28;20059;-85
2024/01/03 10:41:02;;;;;;;10.80;2.00;;;13.50;35.20;;;;;;6322598;28;20075;-87
2024/01/03 10:44:04;;;;;;;10.43;2.13;;;12.80;59.60;;;;;;6321772;28;20059;-88
2024/01/03 10:47:06;;;;;;;15.15;2.20;;;12.70;74.10;;;;;;6305761;28;20052;-88
2024/01/03 10:50:08;;;;;;;12.32;2.70;;;12.40;67.90;;;;;;6311274;28;20490;-87
2024/01/03 10:53:10;;;;;;;16.02;2.80;;;12.00;76.20;;;;;;6286876;28;20131;-88
2024/01/03 10:56:11;;;;;;;15.15;3.08;;;11.80;87.30;;;;;;6322218;28;20048;-86
2024/01/03 10:59:13;;;;;;;15.48;2.80;;;12.50;77.70;;;;;;6317779;28;20071;-88
2024/01/03 11:02:14;;;;;;;10.80;2.28;;;13.00;74.40;;;;;;6322009;28;20048;-87
2024/01/03 11:05:17;;;;;;;14.43;2.50;;;12.80;70.00;;;;;;6321597;28;20052;-86
2024/01/03 11:08:18;;;;;;;13.48;2.95;;;13.10;71.80;;;;;;6279545;28;20261;-86
2024/01/03 11:11:20;;;;;;;15.13;3.45;;;13.00;65.90;;;;;;6321048;28;20083;-85
2024/01/03 11:14:22;;;;;;;14.10;2.13;;;12.80;70.70;;;;;;6329890;28;20539;-88
2024/01/03 11:17:23;;;;;;;10.07;2.15;;;13.60;57.00;;;;;;6312696;28;20349;-86
2024/01/03 11:20:25;;;;;;;9.30;1.58;;;13.50;55.50;;;;;;6309734;28;20048;-88
2024/01/03 11:23:27;;;;;;;13.60;1.95;;;13.90;46.50;;;;;;6295680;28;20052;-91
2024/01/03 11:26:28;;;;;;;10.77;1.80;;;14.80;60.10;;;;;;6316074;28;20089;-88
2024/01/03 11:29:30;;;;;;;10.00;1.75;;;14.80;16.20;;;;;;6331513;28;20059;-90
2024/01/03 11:32:32;;;;;;;9.93;2.13;;;14.60;20.40;;;;;;6306888;28;20056;-92
2024/01/03 11:35:39;;;;;;;9.80;2.13;;;14.50;34.80;;;;;;6283243;28;20067;-89
2024/01/03 11:38:41;;;;;;;11.55;1.55;;;14.20;24.50;;;;;;6329894;28;20161;-89
2024/01/03 11:41:43;;;;;;;15.57;1.95;;;13.80;30.70;;;;;;6313204;28;20048;-90
2024/01/03 11:44:45;;;;;;;10.68;1.90;;;13.30;34.50;;;;;;6330195;22;20052;-86
2024/01/03 11:47:46;;;;;;;9.90;1.92;;;13.20;48.90;;;;;;6326358;28;20470;-84
2024/01/03 11:50:48;;;;;;;12.40;2.33;;;13.50;40.40;;;;;;6344818;28;20418;-83
2024/01/03 11:53:50;;;;;;;11.00;1.80;;;13.70;28.50;;;;;;6345213;28;20173;-85
2024/01/03 11:56:56;;;;;;;10.90;1.70;;;13.90;29.40;;;;;;6344015;28;20418;-85
2024/01/03 11:59:59;;;;;;;10.65;2.30;;;14.30;7.40;;;;;;6344689;28;20055;-90
2024/01/03 12:03:02;;;;;;;9.07;1.70;;;14.80;1.00;;;;;;6329354;28;20146;-91
2024/01/03 12:06:04;;;;;;;6.45;1.55;;;14.90;1.00;;;;;;6322821;28;20058;-87
2024/01/03 12:09:06;;;;;;;10.50;1.60;;;14.70;1.00;;;;;;6332349;28;20059;-88
2024/01/03 12:12:08;;;;;;;15.40;2.75;;;14.40;2.80;;;;;;6328041;28;20449;-89
2024/01/03 12:15:10;;;;;;;11.07;2.05;;;14.30;8.60;;;;;;6326391;28;20048;-87
2024/01/03 12:18:12;;;;;;;13.55;2.55;;;14.30;11.00;;;;;;6339083;28;20570;-87
2024/01/03 12:21:14;;;;;;;10.32;2.08;;;14.50;16.70;;;;;;6327639;28;20056;-86
2024/01/03 12:24:15;;;;;;;8.07;1.65;;;14.30;15.40;;;;;;6344389;28;20051;-83
2024/01/03 12:27:17;;;;;;;12.77;2.25;;;14.10;20.80;;;;;;6341406;28;20117;-84
2024/01/03 12:30:19;;;;;;;17.38;2.95;;;13.50;45.00;;;;;;6308675;28;20048;-83
2024/01/03 12:33:21;;;;;;;15.07;3.08;;;12.80;79.00;;;;;;6345477;28;20057;-85
2024/01/03 12:36:23;;;;;;;17.40;3.10;;;12.20;98.90;;;;;;6324998;28;20047;-85
2024/01/03 12:39:25;;;;;;;15.63;2.75;;;11.70;99.90;;;;;;6325296;28;20096;-84
2024/01/03 12:42:29;;;;;;;15.13;2.53;;;11.30;99.90;;;;;;6324441;28;20407;-88
2024/01/03 12:45:43;;;;;;;13.68;2.80;;;11.10;99.90;;;;;;6326101;28;20044;-85
2024/01/03 12:48:44;;;;;;;10.73;2.55;;;11.10;99.90;;;;;;6325201;28;20545;-84
2024/01/03 12:51:46;;;;;;;13.60;2.30;;;11.00;99.90;;;;;;6325413;28;20079;-85
2024/01/03 12:54:48;;;;;;;18.38;2.70;;;11.10;99.90;;;;;;6344148;28;20059;-85
2024/01/03 12:57:49;;;;;;;14.38;2.80;;;11.10;99.90;;;;;;6343460;28;20039;-86
2024/01/03 13:00:51;;;;;;;13.55;2.90;;;11.10;99.90;;;;;;6324061;28;20051;-87
2024/01/03 13:03:54;;;;;;;11.23;1.80;;;11.20;99.90;;;;;;6322031;28;20411;-81
2024/01/03 13:06:56;;;;;;;14.43;2.22;;;11.30;99.90;;;;;;6325478;28;20059;-85
2024/01/03 13:09:57;;;;;;;14.00;2.60;;;11.20;99.90;;;;;;6343344;28;20054;-82
2024/01/03 13:12:59;;;;;;;13.15;2.42;;;11.20;99.90;;;;;;6330468;28;20514;-86
2024/01/03 13:16:01;;;;;;;12.95;1.98;;;11.50;99.90;;;;;;6330500;28;20060;-86
2024/01/03 13:19:03;;;;;;;7.90;1.95;;;11.20;99.90;;;;;;6334027;28;20067;-85
2024/01/03 13:22:05;;;;;;;9.88;2.35;;;11.20;99.90;;;;;;6328679;28;20051;-89
2024/01/03 13:25:07;;;;;;;16.70;2.58;;;11.10;99.90;;;;;;6348354;28;20051;-83
2024/01/03 13:28:08;;;;;;;12.35;2.30;;;11.20;99.90;;;;;;6350006;28;20079;-87
2024/01/03 13:31:11;;;;;;;10.40;2.33;;;11.10;99.90;;;;;;6344153;28;20067;-82
2024/01/03 13:34:12;;;;;;;13.13;2.38;;;11.00;99.90;;;;;;6343847;28;20081;-83
2024/01/03 13:37:14;;;;;;;13.10;2.53;;;11.00;99.90;;;;;;6334192;28;20059;-88
2024/01/03 13:40:17;;;;;;;13.48;2.65;;;10.90;99.90;;;;;;6344887;28;20152;-88
2024/01/03 13:43:19;;;;;;;8.73;2.10;;;10.80;99.90;;;;;;6345312;28;20079;-89
2024/01/03 13:46:21;;;;;;;11.57;2.38;;;11.50;99.90;;;;;;6340922;28;20051;-87
2024/01/03 13:49:23;;;;;;;15.13;2.72;;;11.00;99.90;;;;;;6338154;28;20055;-87
2024/01/03 13:52:25;;;;;;;10.27;2.17;;;10.90;99.90;;;;;;6339399;28;20055;-86
2024/01/03 13:55:27;;;;;;;10.38;2.65;;;11.00;99.90;;;;;;6341916;28;20139;-86
2024/01/03 13:58:28;;;;;;;14.20;2.80;;;11.10;99.90;;;;;;6339748;28;20338;-87
2024/01/03 14:01:30;;;;;;;14.02;3.15;;;11.10;99.90;;;;;;6343358;28;20062;-86
2024/01/03 14:04:31;;;;;;;9.90;2.60;;;11.30;99.90;;;;;;6334876;28;20047;-83
2024/01/03 14:07:33;;;;;;;11.63;2.28;;;11.10;99.90;;;;;;6352761;28;20075;-87
2024/01/03 14:10:35;;;;;;;7.72;1.85;;;11.10;99.90;;;;;;6334023;28;20043;-88
2024/01/03 14:13:36;;;;;;;5.35;1.48;;;11.00;99.20;;;;;;6350393;28;20055;-84
2024/01/03 14:16:38;;;;;;;6.82;1.50;;;11.00;97.00;;;;;;6332458;28;20052;-85
2024/01/03 14:19:41;;;;;;;7.82;1.65;;;10.90;97.10;;;;;;6332942;28;20100;-84
2024/01/03 14:22:45;;;;;;;6.03;1.40;;;10.90;96.90;;;;;;6348638;28;20181;-84
2024/01/03 14:25:47;;;;;;;5.93;1.17;;;10.80;96.30;;;;;;6329202;28;20047;-86
2024/01/03 14:28:49;;;;;;;7.32;1.40;;;10.80;95.70;;;;;;6327982;28;20422;-87
2024/01/03 14:31:50;;;;;;;5.70;1.15;;;10.80;96.40;;;;;;6329631;28;20083;-90
2024/01/03 14:34:52;;;;;;;6.25;1.23;;;10.70;96.40;;;;;;6328958;28;20415;-86
2024/01/03 14:37:54;;;;;;;9.18;1.70;;;10.60;97.70;;;;;;6330460;28;20445;-85
2024/01/03 14:40:56;;;;;;;7.13;1.50;;;10.70;98.30;;;;;;6329972;28;20047;-86
2024/01/03 14:43:59;;;;;;;7.30;1.52;;;10.70;98.70;;;;;;6326634;28;20550;-85
2024/01/03 14:47:01;;;;;;;7.68;1.55;;;11.30;98.70;;;;;;6329502;28;20128;-85
2024/01/03 14:50:03;;;;;;;9.90;1.83;;;11.00;98.80;;;;;;6328634;28;20056;-86
2024/01/03 14:53:04;;;;;;;9.82;1.60;;;11.10;95.80;;;;;;6346158;28;20055;-89
2024/01/03 14:56:06;;;;;;;6.47;1.30;;;11.10;93.70;;;;;;6327943;28;20093;-86
2024/01/03 14:59:14;;;;;;;5.93;1.35;;;11.20;93.70;;;;;;6329274;28;20054;-87
2024/01/03 15:02:17;;;;;;;7.90;1.30;;;11.30;94.10;;;;;;6318972;28;20044;-86
2024/01/03 15:05:19;;;;;;;9.15;1.30;;;11.30;93.70;;;;;;6303398;28;20066;-84
2024/01/03 15:08:20;;;;;;;8.88;1.50;;;11.30;94.40;;;;;;6327977;28;20066;-85
2024/01/03 15:11:22;;;;;;;8.05;1.52;;;11.20;92.70;;;;;;6331748;28;20055;-90
2024/01/03 15:14:24;;;;;;;7.30;1.73;;;11.10;93.40;;;;;;6330057;28;20059;-88
2024/01/03 15:17:26;;;;;;;7.40;1.20;;;11.10;93.50;;;;;;6330756;28;20624;-89
2024/01/03 15:20:27;;;;;;;9.13;1.50;;;11.00;92.70;;;;;;6345440;28;20476;-85
2024/01/03 15:23:29;;;;;;;8.52;1.27;;;11.00;94.60;;;;;;6327300;28;20160;-85
2024/01/03 15:26:31;;;;;;;4.60;1.17;;;10.90;94.50;;;;;;6326155;28;20498;-84
2024/01/03 15:29:32;;;;;;;10.43;1.67;;;10.80;95.90;;;;;;6329570;28;20047;-88
2024/01/03 15:32:35;;;;;;;8.23;1.50;;;10.70;96.20;;;;;;6327688;28;20078;-86
2024/01/03 15:35:36;;;;;;;6.82;1.27;;;10.70;96.50;;;;;;6327691;28;20437;-87
2024/01/03 15:38:38;;;;;;;11.73;1.73;;;10.70;97.60;;;;;;6344052;28;20059;-84
2024/01/03 15:41:40;;;;;;;7.93;1.40;;;10.70;97.80;;;;;;6345974;28;20155;-85